sensor_id;sensor_type;location;lat;lon;timestamp;temperature;humidity
52899;DHT22;38763;53.096;6.062;2022-10-31T00:02:04;12.00;99.90
52899;DHT22;38763;53.096;6.062;2022-10-31T00:04:30;11.80;99.90
52899;DHT22;38763;53.096;6.062;2022-10-31T00:06:56;12.00;99.90
52899;DHT22;38763;53.096;6.062;2022-10-31T00:09:22;12.00;99.90
52899;DHT22;38763;53.096;6.062;2022-10-31T00:11:47;12.00;99.90
52899;DHT22;38763;53.096;6.062;2022-10-31T00:14:13;11.90;99.90
52899;DHT22;38763;53.096;6.062;2022-10-31T00:16:38;11.80;99.90
52899;DHT22;38763;53.096;6.062;2022-10-31T00:19:06;11.90;99.90
52899;DHT22;38763;53.096;6.062;2022-10-31T00:21:33;11.90;99.90
52899;DHT22;38763;53.096;6.062;2022-10-31T00:24:00;11.90;99.90
52899;DHT22;38763;53.096;6.062;2022-10-31T00:26:30;11.70;99.90
52899;DHT22;38763;53.096;6.062;2022-10-31T00:28:57;11.80;99.90
52899;DHT22;38763;53.096;6.062;2022-10-31T00:31:22;11.60;99.90
52899;DHT22;38763;53.096;6.062;2022-10-31T00:33:48;11.70;99.90
52899;DHT22;38763;53.096;6.062;2022-10-31T00:36:16;11.70;99.90
52899;DHT22;38763;53.096;6.062;2022-10-31T00:38:42;11.70;99.90
52899;DHT22;38763;53.096;6.062;2022-10-31T00:41:09;11.70;99.90
52899;DHT22;38763;53.096;6.062;2022-10-31T00:43:34;11.70;99.90
52899;DHT22;38763;53.096;6.062;2022-10-31T00:46:00;11.50;99.90
52899;DHT22;38763;53.096;6.062;2022-10-31T00:48:26;11.60;99.90
52899;DHT22;38763;53.096;6.062;2022-10-31T00:50:52;11.60;99.90
52899;DHT22;38763;53.096;6.062;2022-10-31T00:53:18;11.50;99.90
52899;DHT22;38763;53.096;6.062;2022-10-31T00:55:43;11.40;99.90
52899;DHT22;38763;53.096;6.062;2022-10-31T00:58:09;11.40;99.90
52899;DHT22;38763;53.096;6.062;2022-10-31T01:00:34;11.50;99.90
52899;DHT22;38763;53.096;6.062;2022-10-31T01:03:00;11.60;99.90
52899;DHT22;38763;53.096;6.062;2022-10-31T01:05:26;11.60;99.90
52899;DHT22;38763;53.096;6.062;2022-10-31T01:07:51;11.30;99.90
52899;DHT22;38763;53.096;6.062;2022-10-31T01:10:17;11.40;99.90
52899;DHT22;38763;53.096;6.062;2022-10-31T01:12:45;11.30;99.90
52899;DHT22;38763;53.096;6.062;2022-10-31T01:15:14;11.40;99.90
52899;DHT22;38763;53.096;6.062;2022-10-31T01:17:40;11.50;99.90
52899;DHT22;38763;53.096;6.062;2022-10-31T01:20:07;11.40;99.90
52899;DHT22;38763;53.096;6.062;2022-10-31T01:22:34;11.40;99.90
52899;DHT22;38763;53.096;6.062;2022-10-31T01:25:00;11.50;99.90
52899;DHT22;38763;53.096;6.062;2022-10-31T01:27:26;11.40;99.90
52899;DHT22;38763;53.096;6.062;2022-10-31T01:29:51;11.20;99.90
52899;DHT22;38763;53.096;6.062;2022-10-31T01:32:17;11.40;99.90
52899;DHT22;38763;53.096;6.062;2022-10-31T01:34:43;11.20;99.90
52899;DHT22;38763;53.096;6.062;2022-10-31T01:37:08;11.20;99.90
52899;DHT22;38763;53.096;6.062;2022-10-31T01:39:34;11.20;99.90
52899;DHT22;38763;53.096;6.062;2022-10-31T01:41:59;11.10;99.90
52899;DHT22;38763;53.096;6.062;2022-10-31T01:49:40;11.20;99.90
52899;DHT22;38763;53.096;6.062;2022-10-31T01:52:18;11.30;99.90
52899;DHT22;38763;53.096;6.062;2022-10-31T01:54:53;11.10;99.90
52899;DHT22;38763;53.096;6.062;2022-10-31T01:57:22;11.10;99.90
52899;DHT22;38763;53.096;6.062;2022-10-31T01:59:52;11.10;99.90
52899;DHT22;38763;53.096;6.062;2022-10-31T02:02:20;11.10;99.90
52899;DHT22;38763;53.096;6.062;2022-10-31T02:04:46;11.10;99.90
52899;DHT22;38763;53.096;6.062;2022-10-31T02:07:43;11.20;99.90
52899;DHT22;38763;53.096;6.062;2022-10-31T02:10:11;11.20;99.90
52899;DHT22;38763;53.096;6.062;2022-10-31T02:12:36;11.30;99.90
52899;DHT22;38763;53.096;6.062;2022-10-31T02:15:03;11.00;99.90
52899;DHT22;38763;53.096;6.062;2022-10-31T02:17:30;11.20;99.90
52899;DHT22;38763;53.096;6.062;2022-10-31T02:28:25;11.00;99.90
52899;DHT22;38763;53.096;6.062;2022-10-31T02:33:53;11.10;99.90
52899;DHT22;38763;53.096;6.062;2022-10-31T02:44:15;10.80;99.90
52899;DHT22;38763;53.096;6.062;2022-10-31T02:49:29;11.00;99.90
52899;DHT22;38763;53.096;6.062;2022-10-31T02:51:58;10.80;99.90
52899;DHT22;38763;53.096;6.062;2022-10-31T02:54:27;10.90;99.90
52899;DHT22;38763;53.096;6.062;2022-10-31T02:57:04;10.70;99.90
52899;DHT22;38763;53.096;6.062;2022-10-31T02:59:34;10.90;99.90
52899;DHT22;38763;53.096;6.062;2022-10-31T03:02:06;10.70;99.90
52899;DHT22;38763;53.096;6.062;2022-10-31T03:07:34;10.70;99.90
52899;DHT22;38763;53.096;6.062;2022-10-31T03:13:01;10.70;99.90
52899;DHT22;38763;53.096;6.062;2022-10-31T03:15:35;10.70;99.90
52899;DHT22;38763;53.096;6.062;2022-10-31T03:18:16;10.50;99.90
52899;DHT22;38763;53.096;6.062;2022-10-31T03:20:52;10.60;99.90
52899;DHT22;38763;53.096;6.062;2022-10-31T03:23:22;10.50;99.90
52899;DHT22;38763;53.096;6.062;2022-10-31T03:25:48;10.60;99.90
52899;DHT22;38763;53.096;6.062;2022-10-31T03:28:17;10.50;99.90
52899;DHT22;38763;53.096;6.062;2022-10-31T03:30:45;10.50;99.90
52899;DHT22;38763;53.096;6.062;2022-10-31T03:33:16;10.40;99.90
52899;DHT22;38763;53.096;6.062;2022-10-31T03:35:46;10.40;99.90
52899;DHT22;38763;53.096;6.062;2022-10-31T03:38:14;10.60;99.90
52899;DHT22;38763;53.096;6.062;2022-10-31T03:40:43;10.60;99.90
52899;DHT22;38763;53.096;6.062;2022-10-31T03:43:17;10.40;99.90
52899;DHT22;38763;53.096;6.062;2022-10-31T03:45:46;10.40;99.90
52899;DHT22;38763;53.096;6.062;2022-10-31T03:48:13;10.50;99.90
52899;DHT22;38763;53.096;6.062;2022-10-31T03:53:40;10.60;99.90
52899;DHT22;38763;53.096;6.062;2022-10-31T03:56:13;10.50;99.90
52899;DHT22;38763;53.096;6.062;2022-10-31T04:01:58;10.60;99.90
52899;DHT22;38763;53.096;6.062;2022-10-31T04:04:26;10.40;99.90
52899;DHT22;38763;53.096;6.062;2022-10-31T04:06:52;10.40;99.90
52899;DHT22;38763;53.096;6.062;2022-10-31T04:09:19;10.50;99.90
52899;DHT22;38763;53.096;6.062;2022-10-31T04:11:51;10.60;99.90
52899;DHT22;38763;53.096;6.062;2022-10-31T04:14:17;10.50;99.90
52899;DHT22;38763;53.096;6.062;2022-10-31T04:16:43;10.50;99.90
52899;DHT22;38763;53.096;6.062;2022-10-31T04:19:10;10.40;99.90
52899;DHT22;38763;53.096;6.062;2022-10-31T04:21:36;10.40;99.90
52899;DHT22;38763;53.096;6.062;2022-10-31T04:24:02;10.40;99.90
52899;DHT22;38763;53.096;6.062;2022-10-31T04:26:28;10.50;99.90
52899;DHT22;38763;53.096;6.062;2022-10-31T04:28:53;10.50;99.90
52899;DHT22;38763;53.096;6.062;2022-10-31T04:31:19;10.30;99.90
52899;DHT22;38763;53.096;6.062;2022-10-31T04:33:45;10.40;99.90
52899;DHT22;38763;53.096;6.062;2022-10-31T04:36:10;10.40;99.90
52899;DHT22;38763;53.096;6.062;2022-10-31T04:38:36;10.20;99.90
52899;DHT22;38763;53.096;6.062;2022-10-31T04:41:02;10.40;99.90
52899;DHT22;38763;53.096;6.062;2022-10-31T04:43:27;10.20;99.90
52899;DHT22;38763;53.096;6.062;2022-10-31T04:45:53;10.40;99.90
52899;DHT22;38763;53.096;6.062;2022-10-31T04:48:18;10.20;99.90
52899;DHT22;38763;53.096;6.062;2022-10-31T04:50:44;10.10;99.90
52899;DHT22;38763;53.096;6.062;2022-10-31T04:53:10;10.10;99.90
52899;DHT22;38763;53.096;6.062;2022-10-31T04:55:36;10.30;99.90
52899;DHT22;38763;53.096;6.062;2022-10-31T04:58:01;10.10;99.90
52899;DHT22;38763;53.096;6.062;2022-10-31T05:00:27;10.20;99.90
52899;DHT22;38763;53.096;6.062;2022-10-31T05:02:54;10.10;99.90
52899;DHT22;38763;53.096;6.062;2022-10-31T05:05:22;10.20;99.90
52899;DHT22;38763;53.096;6.062;2022-10-31T05:07:49;10.00;99.90
52899;DHT22;38763;53.096;6.062;2022-10-31T05:10:17;10.10;99.90
52899;DHT22;38763;53.096;6.062;2022-10-31T05:12:51;10.10;99.90
52899;DHT22;38763;53.096;6.062;2022-10-31T05:15:18;10.00;99.90
52899;DHT22;38763;53.096;6.062;2022-10-31T05:17:44;10.10;99.90
52899;DHT22;38763;53.096;6.062;2022-10-31T05:20:14;9.90;99.90
52899;DHT22;38763;53.096;6.062;2022-10-31T05:22:50;10.10;99.90
52899;DHT22;38763;53.096;6.062;2022-10-31T05:25:17;9.90;99.90
52899;DHT22;38763;53.096;6.062;2022-10-31T05:27:45;10.20;99.90
52899;DHT22;38763;53.096;6.062;2022-10-31T05:30:13;9.90;99.90
52899;DHT22;38763;53.096;6.062;2022-10-31T05:32:39;10.00;99.90
52899;DHT22;38763;53.096;6.062;2022-10-31T05:35:07;9.90;99.90
52899;DHT22;38763;53.096;6.062;2022-10-31T05:37:34;9.90;99.90
52899;DHT22;38763;53.096;6.062;2022-10-31T05:40:01;9.90;99.90
52899;DHT22;38763;53.096;6.062;2022-10-31T05:42:27;10.00;99.90
52899;DHT22;38763;53.096;6.062;2022-10-31T05:44:52;10.10;99.90
52899;DHT22;38763;53.096;6.062;2022-10-31T05:47:18;9.80;99.90
52899;DHT22;38763;53.096;6.062;2022-10-31T05:49:44;9.80;99.90
52899;DHT22;38763;53.096;6.062;2022-10-31T05:52:09;10.00;99.90
52899;DHT22;38763;53.096;6.062;2022-10-31T05:54:35;10.10;99.90
52899;DHT22;38763;53.096;6.062;2022-10-31T05:57:00;10.00;99.90
52899;DHT22;38763;53.096;6.062;2022-10-31T05:59:26;9.90;99.90
52899;DHT22;38763;53.096;6.062;2022-10-31T06:01:51;10.10;99.90
52899;DHT22;38763;53.096;6.062;2022-10-31T06:04:17;10.00;99.90
52899;DHT22;38763;53.096;6.062;2022-10-31T06:06:42;9.80;99.90
52899;DHT22;38763;53.096;6.062;2022-10-31T06:09:08;9.90;99.90
52899;DHT22;38763;53.096;6.062;2022-10-31T06:11:34;9.80;99.90
52899;DHT22;38763;53.096;6.062;2022-10-31T06:13:59;9.90;99.90
52899;DHT22;38763;53.096;6.062;2022-10-31T06:16:25;10.00;99.90
52899;DHT22;38763;53.096;6.062;2022-10-31T06:18:50;9.90;99.90
52899;DHT22;38763;53.096;6.062;2022-10-31T06:21:16;10.00;99.90
52899;DHT22;38763;53.096;6.062;2022-10-31T06:23:45;9.90;99.90
52899;DHT22;38763;53.096;6.062;2022-10-31T06:26:10;10.00;99.90
52899;DHT22;38763;53.096;6.062;2022-10-31T06:28:36;9.80;99.90
52899;DHT22;38763;53.096;6.062;2022-10-31T06:31:01;9.90;99.90
52899;DHT22;38763;53.096;6.062;2022-10-31T06:33:27;9.80;99.90
52899;DHT22;38763;53.096;6.062;2022-10-31T06:35:53;9.90;99.90
52899;DHT22;38763;53.096;6.062;2022-10-31T06:38:18;9.80;99.90
52899;DHT22;38763;53.096;6.062;2022-10-31T06:40:44;9.80;99.90
52899;DHT22;38763;53.096;6.062;2022-10-31T06:43:09;10.00;99.90
52899;DHT22;38763;53.096;6.062;2022-10-31T06:45:37;9.90;99.90
52899;DHT22;38763;53.096;6.062;2022-10-31T06:48:03;10.00;99.90
52899;DHT22;38763;53.096;6.062;2022-10-31T06:50:29;10.00;99.90
52899;DHT22;38763;53.096;6.062;2022-10-31T06:52:56;9.80;99.90
52899;DHT22;38763;53.096;6.062;2022-10-31T06:55:23;9.90;99.90
52899;DHT22;38763;53.096;6.062;2022-10-31T06:57:59;10.00;99.90
52899;DHT22;38763;53.096;6.062;2022-10-31T07:00:27;9.80;99.90
52899;DHT22;38763;53.096;6.062;2022-10-31T07:05:27;9.80;99.90
52899;DHT22;38763;53.096;6.062;2022-10-31T07:08:00;9.80;99.90
52899;DHT22;38763;53.096;6.062;2022-10-31T07:10:28;9.90;99.90
52899;DHT22;38763;53.096;6.062;2022-10-31T07:12:58;10.00;99.90
52899;DHT22;38763;53.096;6.062;2022-10-31T07:15:24;9.90;99.90
52899;DHT22;38763;53.096;6.062;2022-10-31T07:17:51;9.90;99.90
52899;DHT22;38763;53.096;6.062;2022-10-31T07:20:17;10.00;99.90
52899;DHT22;38763;53.096;6.062;2022-10-31T07:22:42;10.00;99.90
52899;DHT22;38763;53.096;6.062;2022-10-31T07:25:08;9.80;99.90
52899;DHT22;38763;53.096;6.062;2022-10-31T07:27:41;10.00;99.90
52899;DHT22;38763;53.096;6.062;2022-10-31T07:30:09;10.10;99.90
52899;DHT22;38763;53.096;6.062;2022-10-31T07:35:05;9.80;99.90
52899;DHT22;38763;53.096;6.062;2022-10-31T07:37:31;10.00;99.90
52899;DHT22;38763;53.096;6.062;2022-10-31T07:39:57;9.90;99.90
52899;DHT22;38763;53.096;6.062;2022-10-31T07:42:22;10.00;99.90
52899;DHT22;38763;53.096;6.062;2022-10-31T07:44:48;9.90;99.90
52899;DHT22;38763;53.096;6.062;2022-10-31T07:47:13;10.20;99.90
52899;DHT22;38763;53.096;6.062;2022-10-31T07:49:39;10.20;99.90
52899;DHT22;38763;53.096;6.062;2022-10-31T07:52:05;10.30;99.90
52899;DHT22;38763;53.096;6.062;2022-10-31T07:54:30;10.30;99.90
52899;DHT22;38763;53.096;6.062;2022-10-31T07:56:56;10.20;99.90
52899;DHT22;38763;53.096;6.062;2022-10-31T07:59:21;10.30;99.90
52899;DHT22;38763;53.096;6.062;2022-10-31T08:01:47;10.40;99.90
52899;DHT22;38763;53.096;6.062;2022-10-31T08:04:12;10.50;99.90
52899;DHT22;38763;53.096;6.062;2022-10-31T08:06:38;10.40;99.90
52899;DHT22;38763;53.096;6.062;2022-10-31T08:09:04;10.40;99.90
52899;DHT22;38763;53.096;6.062;2022-10-31T08:11:29;10.30;99.90
52899;DHT22;38763;53.096;6.062;2022-10-31T08:13:55;10.50;99.90
52899;DHT22;38763;53.096;6.062;2022-10-31T08:16:20;10.60;99.90
52899;DHT22;38763;53.096;6.062;2022-10-31T08:18:46;10.50;99.90
52899;DHT22;38763;53.096;6.062;2022-10-31T08:21:12;10.60;99.90
52899;DHT22;38763;53.096;6.062;2022-10-31T08:23:38;10.50;99.90
52899;DHT22;38763;53.096;6.062;2022-10-31T08:26:03;10.60;99.90
52899;DHT22;38763;53.096;6.062;2022-10-31T08:28:31;10.70;99.90
52899;DHT22;38763;53.096;6.062;2022-10-31T08:30:58;10.50;99.90
52899;DHT22;38763;53.096;6.062;2022-10-31T08:33:24;10.80;99.90
52899;DHT22;38763;53.096;6.062;2022-10-31T08:35:50;10.60;99.90
52899;DHT22;38763;53.096;6.062;2022-10-31T08:38:16;10.80;99.90
52899;DHT22;38763;53.096;6.062;2022-10-31T08:40:42;10.90;99.90
52899;DHT22;38763;53.096;6.062;2022-10-31T08:43:15;10.70;99.90
52899;DHT22;38763;53.096;6.062;2022-10-31T08:45:40;10.70;99.90
52899;DHT22;38763;53.096;6.062;2022-10-31T08:48:10;10.70;99.90
52899;DHT22;38763;53.096;6.062;2022-10-31T08:50:36;10.70;99.90
52899;DHT22;38763;53.096;6.062;2022-10-31T08:53:17;10.90;99.90
52899;DHT22;38763;53.096;6.062;2022-10-31T08:55:44;10.80;99.90
52899;DHT22;38763;53.096;6.062;2022-10-31T08:58:14;10.90;99.90
52899;DHT22;38763;53.096;6.062;2022-10-31T09:00:41;11.00;99.90
52899;DHT22;38763;53.096;6.062;2022-10-31T09:03:13;10.90;99.90
52899;DHT22;38763;53.096;6.062;2022-10-31T09:05:39;11.00;99.90
52899;DHT22;38763;53.096;6.062;2022-10-31T09:08:06;11.10;99.90
52899;DHT22;38763;53.096;6.062;2022-10-31T09:10:33;11.30;99.90
52899;DHT22;38763;53.096;6.062;2022-10-31T09:13:08;11.10;99.90
52899;DHT22;38763;53.096;6.062;2022-10-31T09:15:37;11.20;99.90
52899;DHT22;38763;53.096;6.062;2022-10-31T09:18:06;11.20;99.90
52899;DHT22;38763;53.096;6.062;2022-10-31T09:20:34;11.30;99.90
52899;DHT22;38763;53.096;6.062;2022-10-31T09:23:02;11.60;99.90
52899;DHT22;38763;53.096;6.062;2022-10-31T09:25:28;11.50;99.90
52899;DHT22;38763;53.096;6.062;2022-10-31T09:27:58;11.70;99.90
52899;DHT22;38763;53.096;6.062;2022-10-31T09:30:28;11.80;99.90
52899;DHT22;38763;53.096;6.062;2022-10-31T09:32:59;11.70;99.90
52899;DHT22;38763;53.096;6.062;2022-10-31T09:35:25;12.00;99.90
52899;DHT22;38763;53.096;6.062;2022-10-31T09:37:55;11.90;99.90
52899;DHT22;38763;53.096;6.062;2022-10-31T09:40:22;12.00;99.90
52899;DHT22;38763;53.096;6.062;2022-10-31T09:51:23;12.20;99.90
52899;DHT22;38763;53.096;6.062;2022-10-31T09:53:56;12.10;99.90
52899;DHT22;38763;53.096;6.062;2022-10-31T09:56:24;12.30;99.90
52899;DHT22;38763;53.096;6.062;2022-10-31T09:58:55;12.30;99.90
52899;DHT22;38763;53.096;6.062;2022-10-31T10:01:49;12.10;99.90
52899;DHT22;38763;53.096;6.062;2022-10-31T10:09:37;12.50;99.90
52899;DHT22;38763;53.096;6.062;2022-10-31T10:22:53;13.10;99.90
52899;DHT22;38763;53.096;6.062;2022-10-31T10:25:20;13.10;99.90
52899;DHT22;38763;53.096;6.062;2022-10-31T10:36:52;13.50;99.90
52899;DHT22;38763;53.096;6.062;2022-10-31T10:39:40;13.40;99.90
52899;DHT22;38763;53.096;6.062;2022-10-31T10:42:14;13.50;99.90
52899;DHT22;38763;53.096;6.062;2022-10-31T10:45:00;13.50;99.90
52899;DHT22;38763;53.096;6.062;2022-10-31T10:47:57;13.30;99.90
52899;DHT22;38763;53.096;6.062;2022-10-31T10:50:37;13.40;99.90
52899;DHT22;38763;53.096;6.062;2022-10-31T10:58:15;13.60;99.90
52899;DHT22;38763;53.096;6.062;2022-10-31T11:00:42;13.70;99.90
52899;DHT22;38763;53.096;6.062;2022-10-31T11:03:10;13.60;99.90
52899;DHT22;38763;53.096;6.062;2022-10-31T11:05:49;13.70;99.90
52899;DHT22;38763;53.096;6.062;2022-10-31T11:11:25;13.70;99.90
52899;DHT22;38763;53.096;6.062;2022-10-31T11:14:13;13.60;99.90
52899;DHT22;38763;53.096;6.062;2022-10-31T11:16:43;13.50;99.90
52899;DHT22;38763;53.096;6.062;2022-10-31T11:19:24;13.60;99.90
52899;DHT22;38763;53.096;6.062;2022-10-31T11:21:52;13.50;99.90
52899;DHT22;38763;53.096;6.062;2022-10-31T11:24:23;13.50;99.90
52899;DHT22;38763;53.096;6.062;2022-10-31T11:26:51;13.40;99.90
52899;DHT22;38763;53.096;6.062;2022-10-31T11:29:20;13.40;99.90
52899;DHT22;38763;53.096;6.062;2022-10-31T11:31:46;13.50;99.90
52899;DHT22;38763;53.096;6.062;2022-10-31T11:34:34;13.50;99.90
52899;DHT22;38763;53.096;6.062;2022-10-31T11:37:17;13.50;99.90
52899;DHT22;38763;53.096;6.062;2022-10-31T11:39:46;13.60;99.90
52899;DHT22;38763;53.096;6.062;2022-10-31T11:42:24;13.60;99.90
52899;DHT22;38763;53.096;6.062;2022-10-31T11:44:51;13.70;99.90
52899;DHT22;38763;53.096;6.062;2022-10-31T11:47:23;13.70;99.90
52899;DHT22;38763;53.096;6.062;2022-10-31T11:49:50;13.80;99.90
52899;DHT22;38763;53.096;6.062;2022-10-31T11:54:57;13.80;99.90
52899;DHT22;38763;53.096;6.062;2022-10-31T11:57:25;13.90;99.90
52899;DHT22;38763;53.096;6.062;2022-10-31T11:59:53;14.00;99.90
52899;DHT22;38763;53.096;6.062;2022-10-31T12:02:20;14.10;99.90
52899;DHT22;38763;53.096;6.062;2022-10-31T12:04:51;14.10;99.90
52899;DHT22;38763;53.096;6.062;2022-10-31T12:07:18;14.20;99.90
52899;DHT22;38763;53.096;6.062;2022-10-31T12:09:44;14.20;99.90
52899;DHT22;38763;53.096;6.062;2022-10-31T12:20:33;14.30;99.90
52899;DHT22;38763;53.096;6.062;2022-10-31T12:23:25;14.40;99.90
52899;DHT22;38763;53.096;6.062;2022-10-31T12:36:36;14.40;99.90
52899;DHT22;38763;53.096;6.062;2022-10-31T12:39:44;14.40;99.90
52899;DHT22;38763;53.096;6.062;2022-10-31T12:55:52;14.40;99.90
52899;DHT22;38763;53.096;6.062;2022-10-31T12:58:26;14.40;99.90
52899;DHT22;38763;53.096;6.062;2022-10-31T13:01:20;14.40;99.90
52899;DHT22;38763;53.096;6.062;2022-10-31T13:03:52;14.40;99.90
52899;DHT22;38763;53.096;6.062;2022-10-31T13:06:28;14.40;99.90
52899;DHT22;38763;53.096;6.062;2022-10-31T13:08:59;14.30;99.90
52899;DHT22;38763;53.096;6.062;2022-10-31T13:11:29;14.30;99.90
52899;DHT22;38763;53.096;6.062;2022-10-31T13:14:18;14.40;99.90
52899;DHT22;38763;53.096;6.062;2022-10-31T13:16:46;14.30;99.90
52899;DHT22;38763;53.096;6.062;2022-10-31T13:19:27;14.40;99.90
52899;DHT22;38763;53.096;6.062;2022-10-31T13:24:31;14.50;99.90
52899;DHT22;38763;53.096;6.062;2022-10-31T13:27:02;14.60;99.90
52899;DHT22;38763;53.096;6.062;2022-10-31T13:29:48;14.60;99.90
52899;DHT22;38763;53.096;6.062;2022-10-31T13:32:15;14.60;99.90
52899;DHT22;38763;53.096;6.062;2022-10-31T13:34:46;14.70;99.90
52899;DHT22;38763;53.096;6.062;2022-10-31T13:37:17;14.70;99.90
52899;DHT22;38763;53.096;6.062;2022-10-31T13:39:58;14.70;99.90
52899;DHT22;38763;53.096;6.062;2022-10-31T13:45:20;14.80;99.90
52899;DHT22;38763;53.096;6.062;2022-10-31T13:50:42;14.70;99.90
52899;DHT22;38763;53.096;6.062;2022-10-31T13:56:26;14.70;99.90
52899;DHT22;38763;53.096;6.062;2022-10-31T13:59:17;14.70;99.90
52899;DHT22;38763;53.096;6.062;2022-10-31T14:01:56;14.70;99.90
52899;DHT22;38763;53.096;6.062;2022-10-31T14:04:23;14.60;99.90
52899;DHT22;38763;53.096;6.062;2022-10-31T14:09:49;14.60;99.90
52899;DHT22;38763;53.096;6.062;2022-10-31T14:15:20;14.60;99.90
52899;DHT22;38763;53.096;6.062;2022-10-31T14:17:52;14.60;99.90
52899;DHT22;38763;53.096;6.062;2022-10-31T14:22:48;14.60;99.90
52899;DHT22;38763;53.096;6.062;2022-10-31T14:25:34;14.60;99.90
52899;DHT22;38763;53.096;6.062;2022-10-31T14:28:03;14.60;99.90
52899;DHT22;38763;53.096;6.062;2022-10-31T14:30:54;14.60;99.90
52899;DHT22;38763;53.096;6.062;2022-10-31T14:33:22;14.60;99.90
52899;DHT22;38763;53.096;6.062;2022-10-31T14:41:14;14.50;99.90
52899;DHT22;38763;53.096;6.062;2022-10-31T14:44:09;14.50;99.90
52899;DHT22;38763;53.096;6.062;2022-10-31T14:47:12;14.50;99.90
52899;DHT22;38763;53.096;6.062;2022-10-31T14:52:07;14.50;99.90
52899;DHT22;38763;53.096;6.062;2022-10-31T14:54:39;14.50;99.90
52899;DHT22;38763;53.096;6.062;2022-10-31T14:57:23;14.50;99.90
52899;DHT22;38763;53.096;6.062;2022-10-31T14:59:57;14.50;99.90
52899;DHT22;38763;53.096;6.062;2022-10-31T15:02:30;14.50;99.90
52899;DHT22;38763;53.096;6.062;2022-10-31T15:05:00;14.50;99.90
52899;DHT22;38763;53.096;6.062;2022-10-31T15:07:27;14.50;99.90
52899;DHT22;38763;53.096;6.062;2022-10-31T15:10:01;14.50;99.90
52899;DHT22;38763;53.096;6.062;2022-10-31T15:12:30;14.60;99.90
52899;DHT22;38763;53.096;6.062;2022-10-31T15:14:56;14.60;99.90
52899;DHT22;38763;53.096;6.062;2022-10-31T15:17:25;14.50;99.90
52899;DHT22;38763;53.096;6.062;2022-10-31T15:19:52;14.50;99.90
52899;DHT22;38763;53.096;6.062;2022-10-31T15:22:21;14.50;99.90
52899;DHT22;38763;53.096;6.062;2022-10-31T15:24:48;14.50;99.90
52899;DHT22;38763;53.096;6.062;2022-10-31T15:27:21;14.40;99.90
52899;DHT22;38763;53.096;6.062;2022-10-31T15:29:56;14.40;99.90
52899;DHT22;38763;53.096;6.062;2022-10-31T15:32:26;14.40;99.90
52899;DHT22;38763;53.096;6.062;2022-10-31T15:34:53;14.40;99.90
52899;DHT22;38763;53.096;6.062;2022-10-31T15:37:21;14.40;99.90
52899;DHT22;38763;53.096;6.062;2022-10-31T15:39:49;14.40;99.90
52899;DHT22;38763;53.096;6.062;2022-10-31T15:42:34;14.40;99.90
52899;DHT22;38763;53.096;6.062;2022-10-31T15:47:38;14.30;99.90
52899;DHT22;38763;53.096;6.062;2022-10-31T15:50:22;14.20;99.90
52899;DHT22;38763;53.096;6.062;2022-10-31T15:52:49;14.30;99.90
52899;DHT22;38763;53.096;6.062;2022-10-31T15:55:29;14.30;99.90
52899;DHT22;38763;53.096;6.062;2022-10-31T15:58:00;14.20;99.90
52899;DHT22;38763;53.096;6.062;2022-10-31T16:00:32;14.30;99.90
52899;DHT22;38763;53.096;6.062;2022-10-31T16:03:24;14.20;99.90
52899;DHT22;38763;53.096;6.062;2022-10-31T16:05:52;14.20;99.90
52899;DHT22;38763;53.096;6.062;2022-10-31T16:08:37;14.20;99.90
52899;DHT22;38763;53.096;6.062;2022-10-31T16:13:37;14.10;99.90
52899;DHT22;38763;53.096;6.062;2022-10-31T16:16:11;14.10;99.90
52899;DHT22;38763;53.096;6.062;2022-10-31T16:18:39;14.10;99.90
52899;DHT22;38763;53.096;6.062;2022-10-31T16:21:06;14.10;99.90
52899;DHT22;38763;53.096;6.062;2022-10-31T16:23:33;14.10;99.90
52899;DHT22;38763;53.096;6.062;2022-10-31T16:25:59;14.00;99.90
52899;DHT22;38763;53.096;6.062;2022-10-31T16:28:26;14.00;99.90
52899;DHT22;38763;53.096;6.062;2022-10-31T16:30:56;14.00;99.90
52899;DHT22;38763;53.096;6.062;2022-10-31T16:33:29;14.00;99.90
52899;DHT22;38763;53.096;6.062;2022-10-31T16:35:57;13.90;99.90
52899;DHT22;38763;53.096;6.062;2022-10-31T16:38:24;13.90;99.90
52899;DHT22;38763;53.096;6.062;2022-10-31T16:40:50;13.90;99.90
52899;DHT22;38763;53.096;6.062;2022-10-31T16:43:18;13.90;99.90
52899;DHT22;38763;53.096;6.062;2022-10-31T16:45:51;13.90;99.90
52899;DHT22;38763;53.096;6.062;2022-10-31T16:48:19;13.90;99.90
52899;DHT22;38763;53.096;6.062;2022-10-31T16:50:47;13.90;99.90
52899;DHT22;38763;53.096;6.062;2022-10-31T16:53:14;13.80;99.90
52899;DHT22;38763;53.096;6.062;2022-10-31T16:58:16;13.90;99.90
52899;DHT22;38763;53.096;6.062;2022-10-31T17:00:43;13.90;99.90
52899;DHT22;38763;53.096;6.062;2022-10-31T17:03:09;13.80;99.90
52899;DHT22;38763;53.096;6.062;2022-10-31T17:05:35;13.80;99.90
52899;DHT22;38763;53.096;6.062;2022-10-31T17:08:03;13.80;99.90
52899;DHT22;38763;53.096;6.062;2022-10-31T17:10:28;13.80;99.90
52899;DHT22;38763;53.096;6.062;2022-10-31T17:12:55;13.80;99.90
52899;DHT22;38763;53.096;6.062;2022-10-31T17:15:27;13.80;99.90
52899;DHT22;38763;53.096;6.062;2022-10-31T17:17:53;13.90;99.90
52899;DHT22;38763;53.096;6.062;2022-10-31T17:20:25;13.80;99.90
52899;DHT22;38763;53.096;6.062;2022-10-31T17:22:51;13.80;99.90
52899;DHT22;38763;53.096;6.062;2022-10-31T17:25:20;13.80;99.90
52899;DHT22;38763;53.096;6.062;2022-10-31T17:27:48;13.80;99.90
52899;DHT22;38763;53.096;6.062;2022-10-31T17:30:14;13.80;99.90
52899;DHT22;38763;53.096;6.062;2022-10-31T17:32:43;13.90;99.90
52899;DHT22;38763;53.096;6.062;2022-10-31T17:35:10;13.90;99.90
52899;DHT22;38763;53.096;6.062;2022-10-31T17:37:36;13.80;99.90
52899;DHT22;38763;53.096;6.062;2022-10-31T17:40:02;13.80;99.90
52899;DHT22;38763;53.096;6.062;2022-10-31T17:42:27;13.80;99.90
52899;DHT22;38763;53.096;6.062;2022-10-31T17:44:53;13.90;99.90
52899;DHT22;38763;53.096;6.062;2022-10-31T17:47:19;13.80;99.90
52899;DHT22;38763;53.096;6.062;2022-10-31T17:49:44;13.80;99.90
52899;DHT22;38763;53.096;6.062;2022-10-31T17:52:10;13.80;99.90
52899;DHT22;38763;53.096;6.062;2022-10-31T17:54:36;13.80;99.90
52899;DHT22;38763;53.096;6.062;2022-10-31T17:57:01;13.80;99.90
52899;DHT22;38763;53.096;6.062;2022-10-31T17:59:27;13.80;99.90
52899;DHT22;38763;53.096;6.062;2022-10-31T18:01:55;13.80;99.90
52899;DHT22;38763;53.096;6.062;2022-10-31T18:04:20;13.80;99.90
52899;DHT22;38763;53.096;6.062;2022-10-31T18:06:46;13.80;99.90
52899;DHT22;38763;53.096;6.062;2022-10-31T18:09:14;13.80;99.90
52899;DHT22;38763;53.096;6.062;2022-10-31T18:11:40;13.80;99.90
52899;DHT22;38763;53.096;6.062;2022-10-31T18:14:07;13.80;99.90
52899;DHT22;38763;53.096;6.062;2022-10-31T18:16:33;13.80;99.90
52899;DHT22;38763;53.096;6.062;2022-10-31T18:18:58;13.70;99.90
52899;DHT22;38763;53.096;6.062;2022-10-31T18:21:29;13.70;99.90
52899;DHT22;38763;53.096;6.062;2022-10-31T18:23:56;13.70;99.90